sim
Sign-in with your pilot id or email,
or register
Callsign
Passwort

Schedule Details

Flight Number: OEO5755
Departure: Hamburg Airport (EDDH) at 04:55
Arrival: Munich Airport (EDDM) at 06:20

Weather Information
Getting current METAR information for EDDH 190620Z VRB01KT CAVOK 08/06 Q1025 NOSIG
Getting current METAR information for EDDM 190620Z 05005KT CAVOK 08/05 Q1020 NOSIG

Schedule Frequency

Route Map